sensor_id;sensor_type;location;lat;lon;timestamp;temperature;humidity
14600;DHT22;7386;45.586;12.854;2022-07-21T06:02:04;26.90;91.70
14600;DHT22;7386;45.586;12.854;2022-07-21T06:04:32;25.80;87.70
14600;DHT22;7386;45.586;12.854;2022-07-21T06:07:01;25.90;87.50
14600;DHT22;7386;45.586;12.854;2022-07-21T06:12:00;26.00;87.40
14600;DHT22;7386;45.586;12.854;2022-07-21T06:14:28;26.20;87.10
14600;DHT22;7386;45.586;12.854;2022-07-21T06:16:57;26.30;86.90
14600;DHT22;7386;45.586;12.854;2022-07-21T06:19:25;26.50;86.00
14600;DHT22;7386;45.586;12.854;2022-07-21T06:21:58;26.60;85.90
14600;DHT22;7386;45.586;12.854;2022-07-21T06:24:27;26.70;84.60
14600;DHT22;7386;45.586;12.854;2022-07-21T06:26:56;26.90;83.50
14600;DHT22;7386;45.586;12.854;2022-07-21T06:29:31;27.00;82.10
14600;DHT22;7386;45.586;12.854;2022-07-21T06:31:59;27.20;81.30
14600;DHT22;7386;45.586;12.854;2022-07-21T06:34:28;27.30;80.60
14600;DHT22;7386;45.586;12.854;2022-07-21T06:36:57;27.50;80.20
14600;DHT22;7386;45.586;12.854;2022-07-21T06:39:25;27.70;80.00
14600;DHT22;7386;45.586;12.854;2022-07-21T06:41:53;28.00;78.90
14600;DHT22;7386;45.586;12.854;2022-07-21T06:44:24;28.20;77.90
14600;DHT22;7386;45.586;12.854;2022-07-21T06:46:53;28.40;77.00
14600;DHT22;7386;45.586;12.854;2022-07-21T06:49:21;28.60;76.80
14600;DHT22;7386;45.586;12.854;2022-07-21T06:51:49;28.90;76.10
14600;DHT22;7386;45.586;12.854;2022-07-21T06:54:18;29.20;75.20
14600;DHT22;7386;45.586;12.854;2022-07-21T06:56:46;29.50;74.40
14600;DHT22;7386;45.586;12.854;2022-07-21T06:59:15;29.80;73.20
14600;DHT22;7386;45.586;12.854;2022-07-21T07:01:45;30.20;71.90
14600;DHT22;7386;45.586;12.854;2022-07-21T07:04:13;30.60;70.90
14600;DHT22;7386;45.586;12.854;2022-07-21T07:06:43;30.90;71.50
14600;DHT22;7386;45.586;12.854;2022-07-21T07:09:11;31.30;71.40
14600;DHT22;7386;45.586;12.854;2022-07-21T07:11:40;31.70;72.00
14600;DHT22;7386;45.586;12.854;2022-07-21T07:14:31;32.00;72.50
14600;DHT22;7386;45.586;12.854;2022-07-21T07:17:02;32.30;72.50
14600;DHT22;7386;45.586;12.854;2022-07-21T07:24:31;32.60;71.90
14600;DHT22;7386;45.586;12.854;2022-07-21T07:26:59;33.80;69.30
14600;DHT22;7386;45.586;12.854;2022-07-21T07:29:28;34.00;68.90
14600;DHT22;7386;45.586;12.854;2022-07-21T07:31:58;34.30;68.80
14600;DHT22;7386;45.586;12.854;2022-07-21T07:34:28;34.40;67.40
14600;DHT22;7386;45.586;12.854;2022-07-21T07:36:57;34.60;68.00
14600;DHT22;7386;45.586;12.854;2022-07-21T07:39:25;34.70;67.80
14600;DHT22;7386;45.586;12.854;2022-07-21T07:41:53;34.70;67.60
14600;DHT22;7386;45.586;12.854;2022-07-21T07:44:23;34.80;67.60
14600;DHT22;7386;45.586;12.854;2022-07-21T07:46:53;34.80;67.10
14600;DHT22;7386;45.586;12.854;2022-07-21T07:49:21;34.90;66.90
14600;DHT22;7386;45.586;12.854;2022-07-21T07:51:51;34.90;65.90
14600;DHT22;7386;45.586;12.854;2022-07-21T07:54:20;35.00;65.60
14600;DHT22;7386;45.586;12.854;2022-07-21T07:59:17;35.10;65.30
14600;DHT22;7386;45.586;12.854;2022-07-21T08:01:45;35.20;62.90
14600;DHT22;7386;45.586;12.854;2022-07-21T08:04:14;35.10;63.10
14600;DHT22;7386;45.586;12.854;2022-07-21T08:06:42;34.90;62.90
14600;DHT22;7386;45.586;12.854;2022-07-21T08:09:12;34.70;64.00
14600;DHT22;7386;45.586;12.854;2022-07-21T08:11:41;34.40;63.80
14600;DHT22;7386;45.586;12.854;2022-07-21T08:14:10;34.20;64.70
14600;DHT22;7386;45.586;12.854;2022-07-21T08:16:38;33.90;65.90
14600;DHT22;7386;45.586;12.854;2022-07-21T08:19:07;33.60;66.60
14600;DHT22;7386;45.586;12.854;2022-07-21T08:21:37;33.30;67.50
14600;DHT22;7386;45.586;12.854;2022-07-21T08:24:27;33.00;68.20
14600;DHT22;7386;45.586;12.854;2022-07-21T08:26:55;32.70;69.80
14600;DHT22;7386;45.586;12.854;2022-07-21T08:29:24;32.40;69.80
14600;DHT22;7386;45.586;12.854;2022-07-21T08:31:52;32.20;70.50
14600;DHT22;7386;45.586;12.854;2022-07-21T08:34:21;32.10;70.50
14600;DHT22;7386;45.586;12.854;2022-07-21T08:36:49;32.00;69.20
14600;DHT22;7386;45.586;12.854;2022-07-21T08:39:18;31.80;68.90
14600;DHT22;7386;45.586;12.854;2022-07-21T08:41:47;31.80;69.10
14600;DHT22;7386;45.586;12.854;2022-07-21T08:44:17;31.70;68.90
14600;DHT22;7386;45.586;12.854;2022-07-21T08:46:50;31.70;69.60
14600;DHT22;7386;45.586;12.854;2022-07-21T08:49:20;31.70;70.00
14600;DHT22;7386;45.586;12.854;2022-07-21T08:51:50;31.70;70.50
14600;DHT22;7386;45.586;12.854;2022-07-21T08:54:20;31.70;70.30
14600;DHT22;7386;45.586;12.854;2022-07-21T08:56:50;31.80;71.40
14600;DHT22;7386;45.586;12.854;2022-07-21T08:59:18;31.80;73.60
14600;DHT22;7386;45.586;12.854;2022-07-21T09:01:55;31.70;75.00
14600;DHT22;7386;45.586;12.854;2022-07-21T09:04:25;31.70;77.60
14600;DHT22;7386;45.586;12.854;2022-07-21T09:07:03;31.60;78.00
14600;DHT22;7386;45.586;12.854;2022-07-21T09:09:33;31.50;78.40
14600;DHT22;7386;45.586;12.854;2022-07-21T09:12:06;31.50;78.70
14600;DHT22;7386;45.586;12.854;2022-07-21T09:14:35;31.50;78.70
14600;DHT22;7386;45.586;12.854;2022-07-21T09:17:06;31.50;78.40
14600;DHT22;7386;45.586;12.854;2022-07-21T09:19:37;31.60;77.90
14600;DHT22;7386;45.586;12.854;2022-07-21T09:22:12;31.50;77.40
14600;DHT22;7386;45.586;12.854;2022-07-21T09:24:41;31.60;77.50
14600;DHT22;7386;45.586;12.854;2022-07-21T09:27:13;31.60;77.30
14600;DHT22;7386;45.586;12.854;2022-07-21T09:29:44;31.60;77.30
14600;DHT22;7386;45.586;12.854;2022-07-21T09:32:19;31.60;77.50
14600;DHT22;7386;45.586;12.854;2022-07-21T09:34:51;31.60;78.60
14600;DHT22;7386;45.586;12.854;2022-07-21T09:37:21;31.60;78.50
14600;DHT22;7386;45.586;12.854;2022-07-21T09:39:52;31.60;79.70
14600;DHT22;7386;45.586;12.854;2022-07-21T09:42:24;31.50;80.80
14600;DHT22;7386;45.586;12.854;2022-07-21T09:44:56;31.50;81.80
14600;DHT22;7386;45.586;12.854;2022-07-21T09:47:27;31.60;81.10
14600;DHT22;7386;45.586;12.854;2022-07-21T09:49:57;31.60;81.20
14600;DHT22;7386;45.586;12.854;2022-07-21T09:52:46;31.60;82.80
14600;DHT22;7386;45.586;12.854;2022-07-21T09:55:16;31.50;84.00
14600;DHT22;7386;45.586;12.854;2022-07-21T09:57:46;31.50;83.70
14600;DHT22;7386;45.586;12.854;2022-07-21T10:00:18;31.50;83.10
14600;DHT22;7386;45.586;12.854;2022-07-21T10:02:48;31.50;80.50
14600;DHT22;7386;45.586;12.854;2022-07-21T10:05:18;31.50;83.10
14600;DHT22;7386;45.586;12.854;2022-07-21T10:07:57;31.50;83.80
14600;DHT22;7386;45.586;12.854;2022-07-21T10:10:32;31.50;83.10
14600;DHT22;7386;45.586;12.854;2022-07-21T10:13:23;31.50;83.10
14600;DHT22;7386;45.586;12.854;2022-07-21T10:15:52;31.50;83.70
14600;DHT22;7386;45.586;12.854;2022-07-21T10:18:23;31.50;81.10
14600;DHT22;7386;45.586;12.854;2022-07-21T10:20:57;31.60;83.20
14600;DHT22;7386;45.586;12.854;2022-07-21T10:23:34;31.60;83.00
14600;DHT22;7386;45.586;12.854;2022-07-21T10:26:04;31.60;82.90
14600;DHT22;7386;45.586;12.854;2022-07-21T10:28:34;31.60;84.60
14600;DHT22;7386;45.586;12.854;2022-07-21T10:31:13;31.60;84.00
14600;DHT22;7386;45.586;12.854;2022-07-21T10:33:54;31.50;81.80
14600;DHT22;7386;45.586;12.854;2022-07-21T10:36:40;31.60;83.20
14600;DHT22;7386;45.586;12.854;2022-07-21T10:39:21;31.50;80.60
14600;DHT22;7386;45.586;12.854;2022-07-21T10:41:51;31.60;79.20
14600;DHT22;7386;45.586;12.854;2022-07-21T10:44:42;31.60;78.00
14600;DHT22;7386;45.586;12.854;2022-07-21T10:47:13;31.60;77.70
14600;DHT22;7386;45.586;12.854;2022-07-21T10:49:53;31.70;76.20
14600;DHT22;7386;45.586;12.854;2022-07-21T10:52:56;31.70;76.30
14600;DHT22;7386;45.586;12.854;2022-07-21T10:55:26;31.70;74.80
14600;DHT22;7386;45.586;12.854;2022-07-21T10:58:25;31.60;69.80
14600;DHT22;7386;45.586;12.854;2022-07-21T11:00:56;31.80;67.60
14600;DHT22;7386;45.586;12.854;2022-07-21T11:03:34;31.80;72.20
14600;DHT22;7386;45.586;12.854;2022-07-21T11:06:19;32.00;76.70
14600;DHT22;7386;45.586;12.854;2022-07-21T11:09:07;32.00;78.90
14600;DHT22;7386;45.586;12.854;2022-07-21T11:11:37;32.00;77.30
14600;DHT22;7386;45.586;12.854;2022-07-21T11:14:11;32.00;79.10
14600;DHT22;7386;45.586;12.854;2022-07-21T11:17:08;32.10;80.00
14600;DHT22;7386;45.586;12.854;2022-07-21T11:19:42;32.10;78.30
14600;DHT22;7386;45.586;12.854;2022-07-21T11:22:14;32.20;78.60
14600;DHT22;7386;45.586;12.854;2022-07-21T11:24:43;32.20;81.00
14600;DHT22;7386;45.586;12.854;2022-07-21T11:27:14;32.20;79.40
14600;DHT22;7386;45.586;12.854;2022-07-21T11:29:45;32.20;79.50
14600;DHT22;7386;45.586;12.854;2022-07-21T11:32:15;32.10;82.60
14600;DHT22;7386;45.586;12.854;2022-07-21T11:34:48;32.20;84.40
14600;DHT22;7386;45.586;12.854;2022-07-21T11:37:18;32.10;83.60
14600;DHT22;7386;45.586;12.854;2022-07-21T11:40:02;32.10;82.20
14600;DHT22;7386;45.586;12.854;2022-07-21T11:42:31;32.10;84.30
14600;DHT22;7386;45.586;12.854;2022-07-21T11:45:00;32.10;84.80
14600;DHT22;7386;45.586;12.854;2022-07-21T11:47:31;32.00;84.00
14600;DHT22;7386;45.586;12.854;2022-07-21T11:50:02;32.00;83.50
14600;DHT22;7386;45.586;12.854;2022-07-21T11:52:32;32.00;85.10
14600;DHT22;7386;45.586;12.854;2022-07-21T11:55:03;32.00;85.20
14600;DHT22;7386;45.586;12.854;2022-07-21T11:57:32;32.00;82.40
14600;DHT22;7386;45.586;12.854;2022-07-21T12:00:06;32.00;84.10
14600;DHT22;7386;45.586;12.854;2022-07-21T12:02:37;31.90;84.80
14600;DHT22;7386;45.586;12.854;2022-07-21T12:05:07;31.80;85.00
14600;DHT22;7386;45.586;12.854;2022-07-21T12:07:38;31.80;84.60
14600;DHT22;7386;45.586;12.854;2022-07-21T12:10:08;31.80;84.60
14600;DHT22;7386;45.586;12.854;2022-07-21T12:12:39;31.80;85.50
14600;DHT22;7386;45.586;12.854;2022-07-21T12:15:13;31.70;85.90
14600;DHT22;7386;45.586;12.854;2022-07-21T12:17:44;31.70;86.80
14600;DHT22;7386;45.586;12.854;2022-07-21T12:20:14;31.70;86.80
14600;DHT22;7386;45.586;12.854;2022-07-21T12:22:45;31.60;86.50
14600;DHT22;7386;45.586;12.854;2022-07-21T12:25:15;31.60;87.20
14600;DHT22;7386;45.586;12.854;2022-07-21T12:27:45;31.60;87.70
14600;DHT22;7386;45.586;12.854;2022-07-21T12:30:32;31.60;87.50
14600;DHT22;7386;45.586;12.854;2022-07-21T12:33:05;31.50;87.30
14600;DHT22;7386;45.586;12.854;2022-07-21T12:35:35;31.40;87.40
14600;DHT22;7386;45.586;12.854;2022-07-21T12:38:09;31.40;87.50
14600;DHT22;7386;45.586;12.854;2022-07-21T12:40:40;31.40;87.40
14600;DHT22;7386;45.586;12.854;2022-07-21T12:43:28;31.40;87.80
14600;DHT22;7386;45.586;12.854;2022-07-21T12:45:59;31.30;87.90
14600;DHT22;7386;45.586;12.854;2022-07-21T12:48:31;31.30;87.60
14600;DHT22;7386;45.586;12.854;2022-07-21T12:51:12;31.30;86.90
14600;DHT22;7386;45.586;12.854;2022-07-21T12:53:43;31.20;86.80
14600;DHT22;7386;45.586;12.854;2022-07-21T12:56:14;31.20;86.70
14600;DHT22;7386;45.586;12.854;2022-07-21T12:58:44;31.20;85.60
14600;DHT22;7386;45.586;12.854;2022-07-21T13:01:13;31.20;85.60
14600;DHT22;7386;45.586;12.854;2022-07-21T13:03:43;31.20;86.80
14600;DHT22;7386;45.586;12.854;2022-07-21T13:06:12;31.20;85.80
14600;DHT22;7386;45.586;12.854;2022-07-21T13:08:44;31.20;84.40
14600;DHT22;7386;45.586;12.854;2022-07-21T13:11:16;31.20;83.60
14600;DHT22;7386;45.586;12.854;2022-07-21T13:13:46;31.20;83.60
14600;DHT22;7386;45.586;12.854;2022-07-21T13:16:15;31.20;84.20
14600;DHT22;7386;45.586;12.854;2022-07-21T13:18:46;31.10;83.70
14600;DHT22;7386;45.586;12.854;2022-07-21T13:21:14;31.20;83.30
14600;DHT22;7386;45.586;12.854;2022-07-21T13:23:43;31.20;84.60
14600;DHT22;7386;45.586;12.854;2022-07-21T13:26:11;31.20;84.30
14600;DHT22;7386;45.586;12.854;2022-07-21T13:28:41;31.20;83.00
14600;DHT22;7386;45.586;12.854;2022-07-21T13:31:09;31.20;82.40
14600;DHT22;7386;45.586;12.854;2022-07-21T13:33:38;31.20;82.50
14600;DHT22;7386;45.586;12.854;2022-07-21T13:36:09;31.20;82.90
14600;DHT22;7386;45.586;12.854;2022-07-21T13:38:40;31.20;82.80
14600;DHT22;7386;45.586;12.854;2022-07-21T13:41:09;31.20;83.30
14600;DHT22;7386;45.586;12.854;2022-07-21T13:43:58;31.20;82.90
14600;DHT22;7386;45.586;12.854;2022-07-21T13:46:28;31.10;83.10
14600;DHT22;7386;45.586;12.854;2022-07-21T13:48:56;31.20;83.80
14600;DHT22;7386;45.586;12.854;2022-07-21T13:51:27;31.20;85.20
14600;DHT22;7386;45.586;12.854;2022-07-21T13:53:55;31.30;84.70
14600;DHT22;7386;45.586;12.854;2022-07-21T13:56:24;31.30;84.00
14600;DHT22;7386;45.586;12.854;2022-07-21T13:58:52;31.30;83.00
14600;DHT22;7386;45.586;12.854;2022-07-21T14:01:21;31.30;82.90
14600;DHT22;7386;45.586;12.854;2022-07-21T14:03:50;31.30;82.90
14600;DHT22;7386;45.586;12.854;2022-07-21T14:06:19;31.40;82.70
14600;DHT22;7386;45.586;12.854;2022-07-21T14:08:49;31.30;82.10
14600;DHT22;7386;45.586;12.854;2022-07-21T14:11:18;31.30;82.90
14600;DHT22;7386;45.586;12.854;2022-07-21T14:13:49;31.40;82.50
14600;DHT22;7386;45.586;12.854;2022-07-21T14:16:18;31.40;81.90
14600;DHT22;7386;45.586;12.854;2022-07-21T14:18:46;31.40;81.40
14600;DHT22;7386;45.586;12.854;2022-07-21T14:21:15;31.40;80.50
14600;DHT22;7386;45.586;12.854;2022-07-21T14:23:43;31.50;79.60
14600;DHT22;7386;45.586;12.854;2022-07-21T14:26:13;31.40;79.70
14600;DHT22;7386;45.586;12.854;2022-07-21T14:28:42;31.50;79.60
14600;DHT22;7386;45.586;12.854;2022-07-21T14:31:10;31.50;78.80
14600;DHT22;7386;45.586;12.854;2022-07-21T14:33:38;31.50;79.70
14600;DHT22;7386;45.586;12.854;2022-07-21T14:36:08;31.50;80.10
14600;DHT22;7386;45.586;12.854;2022-07-21T14:38:36;31.60;80.40
14600;DHT22;7386;45.586;12.854;2022-07-21T14:41:04;31.50;79.90
14600;DHT22;7386;45.586;12.854;2022-07-21T14:43:34;31.60;78.60
14600;DHT22;7386;45.586;12.854;2022-07-21T14:46:02;31.60;78.40
14600;DHT22;7386;45.586;12.854;2022-07-21T14:48:31;31.60;79.20
14600;DHT22;7386;45.586;12.854;2022-07-21T14:50:59;31.50;80.20
14600;DHT22;7386;45.586;12.854;2022-07-21T14:53:27;31.50;79.60
14600;DHT22;7386;45.586;12.854;2022-07-21T14:55:56;31.60;78.40
14600;DHT22;7386;45.586;12.854;2022-07-21T14:58:24;31.50;77.40
14600;DHT22;7386;45.586;12.854;2022-07-21T15:00:54;31.60;78.30
14600;DHT22;7386;45.586;12.854;2022-07-21T15:03:23;31.50;78.10
14600;DHT22;7386;45.586;12.854;2022-07-21T15:05:52;31.50;79.60
14600;DHT22;7386;45.586;12.854;2022-07-21T15:08:20;31.50;80.90
14600;DHT22;7386;45.586;12.854;2022-07-21T15:10:49;31.50;81.70
14600;DHT22;7386;45.586;12.854;2022-07-21T15:13:17;31.50;83.10
14600;DHT22;7386;45.586;12.854;2022-07-21T15:15:45;31.50;83.20
14600;DHT22;7386;45.586;12.854;2022-07-21T15:18:15;31.40;82.90
14600;DHT22;7386;45.586;12.854;2022-07-21T15:20:44;31.40;83.30
14600;DHT22;7386;45.586;12.854;2022-07-21T15:23:12;31.40;83.40
14600;DHT22;7386;45.586;12.854;2022-07-21T15:25:41;31.40;83.50
14600;DHT22;7386;45.586;12.854;2022-07-21T15:28:09;31.40;82.30
14600;DHT22;7386;45.586;12.854;2022-07-21T15:30:37;31.30;81.50
14600;DHT22;7386;45.586;12.854;2022-07-21T15:33:06;31.40;82.10
14600;DHT22;7386;45.586;12.854;2022-07-21T15:35:36;31.40;82.30
14600;DHT22;7386;45.586;12.854;2022-07-21T15:38:04;31.40;80.10
14600;DHT22;7386;45.586;12.854;2022-07-21T15:40:39;31.40;79.50
14600;DHT22;7386;45.586;12.854;2022-07-21T15:43:07;31.40;79.10
14600;DHT22;7386;45.586;12.854;2022-07-21T15:45:36;31.40;78.20
14600;DHT22;7386;45.586;12.854;2022-07-21T15:48:05;31.30;78.90
14600;DHT22;7386;45.586;12.854;2022-07-21T15:50:35;31.30;80.20
14600;DHT22;7386;45.586;12.854;2022-07-21T15:53:05;31.30;79.80
14600;DHT22;7386;45.586;12.854;2022-07-21T15:55:34;31.30;79.40
14600;DHT22;7386;45.586;12.854;2022-07-21T15:58:03;31.30;78.40
14600;DHT22;7386;45.586;12.854;2022-07-21T16:00:32;31.20;76.60
14600;DHT22;7386;45.586;12.854;2022-07-21T16:03:00;31.20;76.60
14600;DHT22;7386;45.586;12.854;2022-07-21T16:05:28;31.20;78.10
14600;DHT22;7386;45.586;12.854;2022-07-21T16:07:58;31.20;79.50
14600;DHT22;7386;45.586;12.854;2022-07-21T16:10:26;31.20;79.00
14600;DHT22;7386;45.586;12.854;2022-07-21T16:12:55;31.10;79.30
14600;DHT22;7386;45.586;12.854;2022-07-21T16:15:25;31.10;79.90
14600;DHT22;7386;45.586;12.854;2022-07-21T16:17:53;31.10;81.00
14600;DHT22;7386;45.586;12.854;2022-07-21T16:20:23;31.10;81.20
14600;DHT22;7386;45.586;12.854;2022-07-21T16:22:53;31.10;80.90
14600;DHT22;7386;45.586;12.854;2022-07-21T16:25:24;31.20;81.30
14600;DHT22;7386;45.586;12.854;2022-07-21T16:27:53;31.10;80.20
14600;DHT22;7386;45.586;12.854;2022-07-21T16:30:21;31.10;79.30
14600;DHT22;7386;45.586;12.854;2022-07-21T16:32:49;31.10;79.50
14600;DHT22;7386;45.586;12.854;2022-07-21T16:35:18;31.10;80.50
14600;DHT22;7386;45.586;12.854;2022-07-21T16:37:48;31.10;80.90
14600;DHT22;7386;45.586;12.854;2022-07-21T16:40:18;31.10;81.40
14600;DHT22;7386;45.586;12.854;2022-07-21T16:42:50;31.00;81.50
14600;DHT22;7386;45.586;12.854;2022-07-21T16:45:19;31.00;82.10
14600;DHT22;7386;45.586;12.854;2022-07-21T16:47:48;31.00;83.70
14600;DHT22;7386;45.586;12.854;2022-07-21T16:50:17;31.00;84.70
14600;DHT22;7386;45.586;12.854;2022-07-21T16:52:45;30.90;83.00
14600;DHT22;7386;45.586;12.854;2022-07-21T16:55:14;31.00;83.70
14600;DHT22;7386;45.586;12.854;2022-07-21T16:57:42;31.00;84.40
14600;DHT22;7386;45.586;12.854;2022-07-21T17:00:13;30.90;85.40
14600;DHT22;7386;45.586;12.854;2022-07-21T17:02:43;30.80;85.30
14600;DHT22;7386;45.586;12.854;2022-07-21T17:05:12;30.80;84.30
14600;DHT22;7386;45.586;12.854;2022-07-21T17:07:40;30.70;83.90
14600;DHT22;7386;45.586;12.854;2022-07-21T17:10:09;30.70;83.80
14600;DHT22;7386;45.586;12.854;2022-07-21T17:12:38;30.80;83.70
14600;DHT22;7386;45.586;12.854;2022-07-21T17:15:08;30.70;83.40
14600;DHT22;7386;45.586;12.854;2022-07-21T17:17:40;30.60;83.00
14600;DHT22;7386;45.586;12.854;2022-07-21T17:20:17;30.60;83.10
14600;DHT22;7386;45.586;12.854;2022-07-21T17:22:45;30.60;83.60
14600;DHT22;7386;45.586;12.854;2022-07-21T17:25:14;30.60;83.80
14600;DHT22;7386;45.586;12.854;2022-07-21T17:27:42;30.50;83.00
14600;DHT22;7386;45.586;12.854;2022-07-21T17:30:16;30.50;81.50
14600;DHT22;7386;45.586;12.854;2022-07-21T17:32:51;30.40;80.90
14600;DHT22;7386;45.586;12.854;2022-07-21T17:35:19;30.40;79.70
14600;DHT22;7386;45.586;12.854;2022-07-21T17:37:48;30.40;79.50
14600;DHT22;7386;45.586;12.854;2022-07-21T17:40:17;30.40;79.20
14600;DHT22;7386;45.586;12.854;2022-07-21T17:42:46;30.30;79.10
14600;DHT22;7386;45.586;12.854;2022-07-21T17:45:15;30.30;78.60
14600;DHT22;7386;45.586;12.854;2022-07-21T17:47:43;30.30;78.60
14600;DHT22;7386;45.586;12.854;2022-07-21T17:50:13;30.20;78.50
14600;DHT22;7386;45.586;12.854;2022-07-21T17:52:41;30.20;78.50
14600;DHT22;7386;45.586;12.854;2022-07-21T17:55:10;30.20;78.10
14600;DHT22;7386;45.586;12.854;2022-07-21T17:57:38;30.20;78.50
14600;DHT22;7386;45.586;12.854;2022-07-21T18:00:24;30.10;78.60
14600;DHT22;7386;45.586;12.854;2022-07-21T18:02:53;30.10;78.70
14600;DHT22;7386;45.586;12.854;2022-07-21T18:05:23;30.10;78.80
14600;DHT22;7386;45.586;12.854;2022-07-21T18:07:52;30.00;78.80
14600;DHT22;7386;45.586;12.854;2022-07-21T18:10:20;30.00;79.00
14600;DHT22;7386;45.586;12.854;2022-07-21T18:12:49;29.90;79.10
14600;DHT22;7386;45.586;12.854;2022-07-21T18:15:17;29.90;79.40
14600;DHT22;7386;45.586;12.854;2022-07-21T18:17:46;29.90;79.30
14600;DHT22;7386;45.586;12.854;2022-07-21T18:20:14;29.80;79.70
14600;DHT22;7386;45.586;12.854;2022-07-21T18:22:44;29.80;81.10
14600;DHT22;7386;45.586;12.854;2022-07-21T18:25:12;29.80;82.30
14600;DHT22;7386;45.586;12.854;2022-07-21T18:27:41;29.70;83.80
14600;DHT22;7386;45.586;12.854;2022-07-21T18:30:10;29.70;85.40
14600;DHT22;7386;45.586;12.854;2022-07-21T18:32:40;29.70;86.70
14600;DHT22;7386;45.586;12.854;2022-07-21T18:35:10;29.60;86.70
14600;DHT22;7386;45.586;12.854;2022-07-21T18:37:38;29.60;87.10
14600;DHT22;7386;45.586;12.854;2022-07-21T18:40:09;29.50;87.20
14600;DHT22;7386;45.586;12.854;2022-07-21T18:42:38;29.50;87.60
14600;DHT22;7386;45.586;12.854;2022-07-21T18:45:07;29.40;87.90
14600;DHT22;7386;45.586;12.854;2022-07-21T18:47:35;29.40;88.90
14600;DHT22;7386;45.586;12.854;2022-07-21T18:50:05;29.40;89.40
14600;DHT22;7386;45.586;12.854;2022-07-21T18:55:03;29.30;89.60
14600;DHT22;7386;45.586;12.854;2022-07-21T18:57:33;29.30;90.40
14600;DHT22;7386;45.586;12.854;2022-07-21T19:00:02;29.20;90.70
14600;DHT22;7386;45.586;12.854;2022-07-21T19:02:38;29.20;90.60
14600;DHT22;7386;45.586;12.854;2022-07-21T19:05:08;29.10;90.70
14600;DHT22;7386;45.586;12.854;2022-07-21T19:07:37;29.10;90.70
14600;DHT22;7386;45.586;12.854;2022-07-21T19:10:15;29.10;91.00
14600;DHT22;7386;45.586;12.854;2022-07-21T19:12:47;29.00;91.20
14600;DHT22;7386;45.586;12.854;2022-07-21T19:15:16;29.00;91.30
14600;DHT22;7386;45.586;12.854;2022-07-21T19:17:45;28.90;91.30
14600;DHT22;7386;45.586;12.854;2022-07-21T19:20:15;28.90;91.60
14600;DHT22;7386;45.586;12.854;2022-07-21T19:22:44;28.90;91.70
14600;DHT22;7386;45.586;12.854;2022-07-21T19:25:21;28.80;91.70
14600;DHT22;7386;45.586;12.854;2022-07-21T19:27:51;28.80;91.80
14600;DHT22;7386;45.586;12.854;2022-07-21T19:30:20;28.80;92.10
14600;DHT22;7386;45.586;12.854;2022-07-21T19:32:50;28.70;92.10
14600;DHT22;7386;45.586;12.854;2022-07-21T19:35:19;28.70;92.70
14600;DHT22;7386;45.586;12.854;2022-07-21T19:37:51;28.70;92.70
14600;DHT22;7386;45.586;12.854;2022-07-21T19:40:20;28.60;92.70
14600;DHT22;7386;45.586;12.854;2022-07-21T19:42:48;28.60;92.70
14600;DHT22;7386;45.586;12.854;2022-07-21T19:45:18;28.60;92.80
14600;DHT22;7386;45.586;12.854;2022-07-21T19:47:46;28.60;92.80
14600;DHT22;7386;45.586;12.854;2022-07-21T19:50:15;28.50;92.90
14600;DHT22;7386;45.586;12.854;2022-07-21T19:52:45;28.50;92.90
14600;DHT22;7386;45.586;12.854;2022-07-21T19:55:14;28.50;92.90
14600;DHT22;7386;45.586;12.854;2022-07-21T19:57:43;28.40;92.90
14600;DHT22;7386;45.586;12.854;2022-07-21T20:00:13;28.40;93.00
14600;DHT22;7386;45.586;12.854;2022-07-21T20:02:44;28.40;93.10
14600;DHT22;7386;45.586;12.854;2022-07-21T20:05:13;28.40;93.20
14600;DHT22;7386;45.586;12.854;2022-07-21T20:07:41;28.40;93.40
14600;DHT22;7386;45.586;12.854;2022-07-21T20:10:10;28.30;93.50
14600;DHT22;7386;45.586;12.854;2022-07-21T20:12:38;28.30;93.70
14600;DHT22;7386;45.586;12.854;2022-07-21T20:15:07;28.30;93.80
14600;DHT22;7386;45.586;12.854;2022-07-21T20:17:37;28.30;94.10
14600;DHT22;7386;45.586;12.854;2022-07-21T20:20:12;28.20;94.00
14600;DHT22;7386;45.586;12.854;2022-07-21T20:22:41;28.20;94.20
14600;DHT22;7386;45.586;12.854;2022-07-21T20:25:10;28.20;94.30
14600;DHT22;7386;45.586;12.854;2022-07-21T20:27:39;28.20;94.50
14600;DHT22;7386;45.586;12.854;2022-07-21T20:30:11;28.10;94.50
14600;DHT22;7386;45.586;12.854;2022-07-21T20:32:45;28.10;94.70
14600;DHT22;7386;45.586;12.854;2022-07-21T20:35:18;28.10;95.00
14600;DHT22;7386;45.586;12.854;2022-07-21T20:37:48;28.10;94.80
14600;DHT22;7386;45.586;12.854;2022-07-21T20:40:18;28.10;95.40
14600;DHT22;7386;45.586;12.854;2022-07-21T20:42:54;28.00;95.80
14600;DHT22;7386;45.586;12.854;2022-07-21T20:45:23;28.10;95.90
14600;DHT22;7386;45.586;12.854;2022-07-21T20:47:51;28.10;96.30
14600;DHT22;7386;45.586;12.854;2022-07-21T20:50:21;28.10;96.60
14600;DHT22;7386;45.586;12.854;2022-07-21T20:52:50;28.10;96.70
14600;DHT22;7386;45.586;12.854;2022-07-21T20:55:38;28.10;96.60
14600;DHT22;7386;45.586;12.854;2022-07-21T20:58:16;28.10;96.60
14600;DHT22;7386;45.586;12.854;2022-07-21T21:00:44;28.10;96.90
14600;DHT22;7386;45.586;12.854;2022-07-21T21:03:13;28.10;96.90
14600;DHT22;7386;45.586;12.854;2022-07-21T21:05:43;28.10;96.80
14600;DHT22;7386;45.586;12.854;2022-07-21T21:08:12;28.10;97.00
14600;DHT22;7386;45.586;12.854;2022-07-21T21:10:46;28.10;97.00
14600;DHT22;7386;45.586;12.854;2022-07-21T21:13:14;28.10;96.80
